sensor_id;sensor_type;location;lat;lon;timestamp;temperature;humidity
32600;DHT22;19277;51.778;7.912;2023-05-10T00:01:37;21.80;86.10
32600;DHT22;19277;51.778;7.912;2023-05-10T00:04:03;21.90;85.90
32600;DHT22;19277;51.778;7.912;2023-05-10T00:06:29;21.90;85.80
32600;DHT22;19277;51.778;7.912;2023-05-10T00:08:55;21.90;85.70
32600;DHT22;19277;51.778;7.912;2023-05-10T00:11:20;21.90;85.50
32600;DHT22;19277;51.778;7.912;2023-05-10T00:13:46;22.00;85.50
32600;DHT22;19277;51.778;7.912;2023-05-10T00:16:12;22.00;85.30
32600;DHT22;19277;51.778;7.912;2023-05-10T00:18:39;22.00;85.00
32600;DHT22;19277;51.778;7.912;2023-05-10T00:21:05;22.00;84.60
32600;DHT22;19277;51.778;7.912;2023-05-10T00:23:31;22.10;84.60
32600;DHT22;19277;51.778;7.912;2023-05-10T00:25:57;22.10;84.60
32600;DHT22;19277;51.778;7.912;2023-05-10T00:28:22;22.10;84.50
32600;DHT22;19277;51.778;7.912;2023-05-10T00:30:48;22.10;84.30
32600;DHT22;19277;51.778;7.912;2023-05-10T00:33:14;22.10;84.30
32600;DHT22;19277;51.778;7.912;2023-05-10T00:35:39;22.10;84.10
32600;DHT22;19277;51.778;7.912;2023-05-10T00:38:05;22.10;84.10
32600;DHT22;19277;51.778;7.912;2023-05-10T00:40:31;22.20;84.10
32600;DHT22;19277;51.778;7.912;2023-05-10T00:42:57;22.20;83.90
32600;DHT22;19277;51.778;7.912;2023-05-10T00:45:23;22.20;83.90
32600;DHT22;19277;51.778;7.912;2023-05-10T00:47:50;22.20;84.30
32600;DHT22;19277;51.778;7.912;2023-05-10T00:50:17;22.20;83.70
32600;DHT22;19277;51.778;7.912;2023-05-10T00:52:43;22.20;83.60
32600;DHT22;19277;51.778;7.912;2023-05-10T00:55:09;22.30;83.60
32600;DHT22;19277;51.778;7.912;2023-05-10T00:57:36;22.20;83.40
32600;DHT22;19277;51.778;7.912;2023-05-10T01:00:02;22.30;83.40
32600;DHT22;19277;51.778;7.912;2023-05-10T01:02:28;22.20;83.30
32600;DHT22;19277;51.778;7.912;2023-05-10T01:04:54;22.30;83.20
32600;DHT22;19277;51.778;7.912;2023-05-10T01:07:20;22.30;83.20
32600;DHT22;19277;51.778;7.912;2023-05-10T01:09:46;22.30;83.10
32600;DHT22;19277;51.778;7.912;2023-05-10T01:12:12;22.30;83.00
32600;DHT22;19277;51.778;7.912;2023-05-10T01:14:37;22.30;82.90
32600;DHT22;19277;51.778;7.912;2023-05-10T01:17:04;22.30;82.90
32600;DHT22;19277;51.778;7.912;2023-05-10T01:19:31;22.30;82.90
32600;DHT22;19277;51.778;7.912;2023-05-10T01:27:55;22.40;83.20
32600;DHT22;19277;51.778;7.912;2023-05-10T01:33:41;22.40;83.30
32600;DHT22;19277;51.778;7.912;2023-05-10T01:39:15;22.40;83.30
32600;DHT22;19277;51.778;7.912;2023-05-10T01:41:52;22.40;83.20
32600;DHT22;19277;51.778;7.912;2023-05-10T01:44:39;22.40;83.20
32600;DHT22;19277;51.778;7.912;2023-05-10T01:47:15;22.40;83.20
32600;DHT22;19277;51.778;7.912;2023-05-10T01:49:54;22.40;83.10
32600;DHT22;19277;51.778;7.912;2023-05-10T01:52:26;22.40;83.20
32600;DHT22;19277;51.778;7.912;2023-05-10T01:55:01;22.50;83.20
32600;DHT22;19277;51.778;7.912;2023-05-10T01:57:33;22.50;83.20
32600;DHT22;19277;51.778;7.912;2023-05-10T02:00:01;22.50;83.10
32600;DHT22;19277;51.778;7.912;2023-05-10T02:02:31;22.50;83.20
32600;DHT22;19277;51.778;7.912;2023-05-10T02:04:59;22.50;83.10
32600;DHT22;19277;51.778;7.912;2023-05-10T02:07:26;22.50;83.10
32600;DHT22;19277;51.778;7.912;2023-05-10T02:09:53;22.50;83.10
32600;DHT22;19277;51.778;7.912;2023-05-10T02:12:20;22.50;83.10
32600;DHT22;19277;51.778;7.912;2023-05-10T02:14:47;22.50;83.10
32600;DHT22;19277;51.778;7.912;2023-05-10T02:17:13;22.50;83.20
32600;DHT22;19277;51.778;7.912;2023-05-10T02:19:41;22.50;83.30
32600;DHT22;19277;51.778;7.912;2023-05-10T02:22:09;22.50;83.30
32600;DHT22;19277;51.778;7.912;2023-05-10T02:24:36;22.50;83.50
32600;DHT22;19277;51.778;7.912;2023-05-10T02:27:03;22.60;83.40
32600;DHT22;19277;51.778;7.912;2023-05-10T02:29:31;22.50;83.40
32600;DHT22;19277;51.778;7.912;2023-05-10T02:31:58;22.60;83.60
32600;DHT22;19277;51.778;7.912;2023-05-10T02:34:28;22.50;83.60
32600;DHT22;19277;51.778;7.912;2023-05-10T02:36:55;22.60;83.70
32600;DHT22;19277;51.778;7.912;2023-05-10T02:39:22;22.60;83.80
32600;DHT22;19277;51.778;7.912;2023-05-10T02:41:50;22.60;83.90
32600;DHT22;19277;51.778;7.912;2023-05-10T02:44:20;22.50;84.10
32600;DHT22;19277;51.778;7.912;2023-05-10T02:46:47;22.60;84.20
32600;DHT22;19277;51.778;7.912;2023-05-10T02:49:14;22.60;84.10
32600;DHT22;19277;51.778;7.912;2023-05-10T02:51:47;22.50;84.30
32600;DHT22;19277;51.778;7.912;2023-05-10T02:54:20;22.50;84.40
32600;DHT22;19277;51.778;7.912;2023-05-10T02:56:56;22.60;84.60
32600;DHT22;19277;51.778;7.912;2023-05-10T02:59:22;22.50;84.50
32600;DHT22;19277;51.778;7.912;2023-05-10T03:01:48;22.60;84.80
32600;DHT22;19277;51.778;7.912;2023-05-10T03:04:13;22.60;84.70
32600;DHT22;19277;51.778;7.912;2023-05-10T03:06:39;22.60;84.90
32600;DHT22;19277;51.778;7.912;2023-05-10T03:09:05;22.60;85.00
32600;DHT22;19277;51.778;7.912;2023-05-10T03:14:42;22.60;85.20
32600;DHT22;19277;51.778;7.912;2023-05-10T03:17:18;22.60;85.40
32600;DHT22;19277;51.778;7.912;2023-05-10T03:19:53;22.70;85.20
32600;DHT22;19277;51.778;7.912;2023-05-10T03:23:24;22.70;85.00
32600;DHT22;19277;51.778;7.912;2023-05-10T03:25:29;22.70;85.00
32600;DHT22;19277;51.778;7.912;2023-05-10T03:27:56;22.70;84.80
32600;DHT22;19277;51.778;7.912;2023-05-10T03:30:22;22.70;84.20
32600;DHT22;19277;51.778;7.912;2023-05-10T03:32:49;22.70;84.20
32600;DHT22;19277;51.778;7.912;2023-05-10T03:35:15;22.70;84.20
32600;DHT22;19277;51.778;7.912;2023-05-10T03:37:40;22.70;84.30
32600;DHT22;19277;51.778;7.912;2023-05-10T03:40:06;22.70;84.10
32600;DHT22;19277;51.778;7.912;2023-05-10T03:42:32;22.70;84.00
32600;DHT22;19277;51.778;7.912;2023-05-10T03:44:58;22.70;83.90
32600;DHT22;19277;51.778;7.912;2023-05-10T03:47:23;22.70;84.20
32600;DHT22;19277;51.778;7.912;2023-05-10T03:49:49;22.70;84.20
32600;DHT22;19277;51.778;7.912;2023-05-10T03:52:14;22.70;84.30
32600;DHT22;19277;51.778;7.912;2023-05-10T03:54:40;22.70;84.50
32600;DHT22;19277;51.778;7.912;2023-05-10T03:57:06;22.70;84.50
32600;DHT22;19277;51.778;7.912;2023-05-10T03:59:31;22.70;84.20
32600;DHT22;19277;51.778;7.912;2023-05-10T04:01:57;22.70;84.20
32600;DHT22;19277;51.778;7.912;2023-05-10T04:04:22;22.70;84.20
32600;DHT22;19277;51.778;7.912;2023-05-10T04:06:48;22.80;84.20
32600;DHT22;19277;51.778;7.912;2023-05-10T04:09:14;22.70;84.00
32600;DHT22;19277;51.778;7.912;2023-05-10T04:11:40;22.80;84.00
32600;DHT22;19277;51.778;7.912;2023-05-10T04:14:05;22.80;83.90
32600;DHT22;19277;51.778;7.912;2023-05-10T04:16:31;22.80;83.90
32600;DHT22;19277;51.778;7.912;2023-05-10T04:18:56;22.80;83.90
32600;DHT22;19277;51.778;7.912;2023-05-10T04:21:22;22.80;83.90
32600;DHT22;19277;51.778;7.912;2023-05-10T04:23:48;22.80;83.90
32600;DHT22;19277;51.778;7.912;2023-05-10T04:26:13;22.80;83.80
32600;DHT22;19277;51.778;7.912;2023-05-10T04:28:39;22.80;83.80
32600;DHT22;19277;51.778;7.912;2023-05-10T04:31:06;22.80;83.60
32600;DHT22;19277;51.778;7.912;2023-05-10T04:33:32;22.80;83.60
32600;DHT22;19277;51.778;7.912;2023-05-10T04:35:58;22.80;83.50
32600;DHT22;19277;51.778;7.912;2023-05-10T04:38:24;22.80;83.40
32600;DHT22;19277;51.778;7.912;2023-05-10T04:40:50;22.80;83.30
32600;DHT22;19277;51.778;7.912;2023-05-10T04:43:15;22.90;83.20
32600;DHT22;19277;51.778;7.912;2023-05-10T04:45:41;22.90;83.50
32600;DHT22;19277;51.778;7.912;2023-05-10T04:48:06;22.90;83.50
32600;DHT22;19277;51.778;7.912;2023-05-10T04:50:32;22.90;83.40
32600;DHT22;19277;51.778;7.912;2023-05-10T04:52:58;22.90;83.50
32600;DHT22;19277;51.778;7.912;2023-05-10T04:55:24;22.90;83.60
32600;DHT22;19277;51.778;7.912;2023-05-10T04:57:50;22.90;83.60
32600;DHT22;19277;51.778;7.912;2023-05-10T05:00:15;22.90;83.80
32600;DHT22;19277;51.778;7.912;2023-05-10T05:02:45;22.90;83.80
32600;DHT22;19277;51.778;7.912;2023-05-10T05:05:11;22.90;83.80
32600;DHT22;19277;51.778;7.912;2023-05-10T05:07:37;22.90;83.60
32600;DHT22;19277;51.778;7.912;2023-05-10T05:10:07;22.90;83.60
32600;DHT22;19277;51.778;7.912;2023-05-10T05:12:33;23.00;83.80
32600;DHT22;19277;51.778;7.912;2023-05-10T05:14:59;22.90;83.50
32600;DHT22;19277;51.778;7.912;2023-05-10T05:17:24;23.00;83.50
32600;DHT22;19277;51.778;7.912;2023-05-10T05:19:50;23.00;83.30
32600;DHT22;19277;51.778;7.912;2023-05-10T05:22:16;23.00;83.20
32600;DHT22;19277;51.778;7.912;2023-05-10T05:24:41;23.00;83.20
32600;DHT22;19277;51.778;7.912;2023-05-10T05:27:07;23.00;83.10
32600;DHT22;19277;51.778;7.912;2023-05-10T05:29:33;23.10;83.10
32600;DHT22;19277;51.778;7.912;2023-05-10T05:31:59;23.10;82.90
32600;DHT22;19277;51.778;7.912;2023-05-10T05:34:24;23.10;82.70
32600;DHT22;19277;51.778;7.912;2023-05-10T05:36:50;23.10;82.70
32600;DHT22;19277;51.778;7.912;2023-05-10T05:39:16;23.10;82.50
32600;DHT22;19277;51.778;7.912;2023-05-10T05:41:42;23.10;82.40
32600;DHT22;19277;51.778;7.912;2023-05-10T05:44:07;23.20;83.00
32600;DHT22;19277;51.778;7.912;2023-05-10T05:46:33;23.20;83.00
32600;DHT22;19277;51.778;7.912;2023-05-10T05:48:59;23.20;83.50
32600;DHT22;19277;51.778;7.912;2023-05-10T05:51:24;23.20;82.90
32600;DHT22;19277;51.778;7.912;2023-05-10T05:53:50;23.20;82.90
32600;DHT22;19277;51.778;7.912;2023-05-10T05:56:16;23.20;83.10
32600;DHT22;19277;51.778;7.912;2023-05-10T05:58:42;23.20;83.20
32600;DHT22;19277;51.778;7.912;2023-05-10T06:01:08;22.40;76.10
32600;DHT22;19277;51.778;7.912;2023-05-10T06:03:34;21.10;79.60
32600;DHT22;19277;51.778;7.912;2023-05-10T06:06:00;19.90;83.20
32600;DHT22;19277;51.778;7.912;2023-05-10T06:08:25;18.90;86.60
32600;DHT22;19277;51.778;7.912;2023-05-10T06:10:51;18.40;88.60
32600;DHT22;19277;51.778;7.912;2023-05-10T06:13:16;18.00;90.40
32600;DHT22;19277;51.778;7.912;2023-05-10T06:15:42;17.70;91.10
32600;DHT22;19277;51.778;7.912;2023-05-10T06:18:08;17.40;92.20
32600;DHT22;19277;51.778;7.912;2023-05-10T06:20:33;17.60;92.90
32600;DHT22;19277;51.778;7.912;2023-05-10T06:22:59;18.20;92.70
32600;DHT22;19277;51.778;7.912;2023-05-10T06:25:24;18.80;91.60
32600;DHT22;19277;51.778;7.912;2023-05-10T06:27:50;19.40;90.80
32600;DHT22;19277;51.778;7.912;2023-05-10T06:30:16;19.80;89.80
32600;DHT22;19277;51.778;7.912;2023-05-10T06:32:41;20.10;88.60
32600;DHT22;19277;51.778;7.912;2023-05-10T06:35:09;20.40;87.80
32600;DHT22;19277;51.778;7.912;2023-05-10T06:37:34;20.60;87.00
32600;DHT22;19277;51.778;7.912;2023-05-10T06:40:00;20.70;86.70
32600;DHT22;19277;51.778;7.912;2023-05-10T06:42:26;20.70;86.10
32600;DHT22;19277;51.778;7.912;2023-05-10T06:44:52;20.80;85.90
32600;DHT22;19277;51.778;7.912;2023-05-10T06:47:18;20.90;85.70
32600;DHT22;19277;51.778;7.912;2023-05-10T06:49:44;20.90;85.40
32600;DHT22;19277;51.778;7.912;2023-05-10T06:52:09;21.00;85.10
32600;DHT22;19277;51.778;7.912;2023-05-10T06:54:35;21.10;85.20
32600;DHT22;19277;51.778;7.912;2023-05-10T06:57:00;21.10;85.00
32600;DHT22;19277;51.778;7.912;2023-05-10T06:59:26;21.10;85.10
32600;DHT22;19277;51.778;7.912;2023-05-10T07:01:51;21.10;85.20
32600;DHT22;19277;51.778;7.912;2023-05-10T07:04:17;21.10;85.20
32600;DHT22;19277;51.778;7.912;2023-05-10T07:06:43;21.10;85.20
32600;DHT22;19277;51.778;7.912;2023-05-10T07:09:08;21.10;85.20
32600;DHT22;19277;51.778;7.912;2023-05-10T07:11:34;21.10;85.20
32600;DHT22;19277;51.778;7.912;2023-05-10T07:14:00;21.10;85.20
32600;DHT22;19277;51.778;7.912;2023-05-10T07:16:25;21.10;85.10
32600;DHT22;19277;51.778;7.912;2023-05-10T07:18:51;21.10;85.10
32600;DHT22;19277;51.778;7.912;2023-05-10T07:21:18;21.10;85.00
32600;DHT22;19277;51.778;7.912;2023-05-10T07:23:43;21.20;84.70
32600;DHT22;19277;51.778;7.912;2023-05-10T07:26:09;21.20;84.40
32600;DHT22;19277;51.778;7.912;2023-05-10T07:28:35;21.20;84.50
32600;DHT22;19277;51.778;7.912;2023-05-10T07:31:02;21.20;84.50
32600;DHT22;19277;51.778;7.912;2023-05-10T07:33:28;21.20;84.20
32600;DHT22;19277;51.778;7.912;2023-05-10T07:35:53;21.20;84.30
32600;DHT22;19277;51.778;7.912;2023-05-10T07:38:19;21.20;84.30
32600;DHT22;19277;51.778;7.912;2023-05-10T07:40:45;21.20;84.30
32600;DHT22;19277;51.778;7.912;2023-05-10T07:43:10;21.20;84.20
32600;DHT22;19277;51.778;7.912;2023-05-10T07:45:36;21.20;84.30
32600;DHT22;19277;51.778;7.912;2023-05-10T07:48:01;21.20;84.20
32600;DHT22;19277;51.778;7.912;2023-05-10T07:50:27;21.30;84.00
32600;DHT22;19277;51.778;7.912;2023-05-10T07:52:53;21.30;83.80
32600;DHT22;19277;51.778;7.912;2023-05-10T07:55:18;21.40;83.70
32600;DHT22;19277;51.778;7.912;2023-05-10T07:57:44;21.50;83.40
32600;DHT22;19277;51.778;7.912;2023-05-10T08:00:12;21.60;83.30
32600;DHT22;19277;51.778;7.912;2023-05-10T08:02:38;21.70;82.90
32600;DHT22;19277;51.778;7.912;2023-05-10T08:05:04;21.70;82.80
32600;DHT22;19277;51.778;7.912;2023-05-10T08:07:30;21.80;82.60
32600;DHT22;19277;51.778;7.912;2023-05-10T08:09:56;21.90;82.30
32600;DHT22;19277;51.778;7.912;2023-05-10T08:12:21;21.90;82.30
32600;DHT22;19277;51.778;7.912;2023-05-10T08:14:47;22.00;81.70
32600;DHT22;19277;51.778;7.912;2023-05-10T08:17:12;22.00;82.00
32600;DHT22;19277;51.778;7.912;2023-05-10T08:19:38;22.00;81.20
32600;DHT22;19277;51.778;7.912;2023-05-10T08:22:04;22.10;80.90
32600;DHT22;19277;51.778;7.912;2023-05-10T08:24:29;22.20;81.00
32600;DHT22;19277;51.778;7.912;2023-05-10T08:26:55;22.20;80.90
32600;DHT22;19277;51.778;7.912;2023-05-10T08:29:20;22.30;80.40
32600;DHT22;19277;51.778;7.912;2023-05-10T08:31:46;22.40;80.40
32600;DHT22;19277;51.778;7.912;2023-05-10T08:34:12;22.50;80.10
32600;DHT22;19277;51.778;7.912;2023-05-10T08:36:37;22.50;79.60
32600;DHT22;19277;51.778;7.912;2023-05-10T08:39:03;22.70;79.20
32600;DHT22;19277;51.778;7.912;2023-05-10T08:41:29;22.70;78.80
32600;DHT22;19277;51.778;7.912;2023-05-10T08:43:56;22.30;76.70
32600;DHT22;19277;51.778;7.912;2023-05-10T08:46:23;21.60;80.10
32600;DHT22;19277;51.778;7.912;2023-05-10T08:48:50;21.10;81.50
32600;DHT22;19277;51.778;7.912;2023-05-10T08:51:23;20.70;83.90
32600;DHT22;19277;51.778;7.912;2023-05-10T08:53:52;20.10;84.40
32600;DHT22;19277;51.778;7.912;2023-05-10T08:56:17;19.90;86.40
32600;DHT22;19277;51.778;7.912;2023-05-10T08:58:43;20.00;86.90
32600;DHT22;19277;51.778;7.912;2023-05-10T09:01:09;20.10;86.90
32600;DHT22;19277;51.778;7.912;2023-05-10T09:03:41;20.10;88.00
32600;DHT22;19277;51.778;7.912;2023-05-10T09:06:06;20.10;85.40
32600;DHT22;19277;51.778;7.912;2023-05-10T09:08:34;20.10;84.70
32600;DHT22;19277;51.778;7.912;2023-05-10T09:11:01;20.20;84.50
32600;DHT22;19277;51.778;7.912;2023-05-10T09:13:28;20.20;82.70
32600;DHT22;19277;51.778;7.912;2023-05-10T09:15:54;19.90;84.80
32600;DHT22;19277;51.778;7.912;2023-05-10T09:18:19;19.80;87.90
32600;DHT22;19277;51.778;7.912;2023-05-10T09:20:45;20.00;86.60
32600;DHT22;19277;51.778;7.912;2023-05-10T09:23:11;20.00;88.00
32600;DHT22;19277;51.778;7.912;2023-05-10T09:25:36;19.90;88.60
32600;DHT22;19277;51.778;7.912;2023-05-10T09:28:06;19.80;88.80
32600;DHT22;19277;51.778;7.912;2023-05-10T09:30:33;19.90;85.80
32600;DHT22;19277;51.778;7.912;2023-05-10T09:32:59;19.90;87.40
32600;DHT22;19277;51.778;7.912;2023-05-10T09:35:27;20.00;86.80
32600;DHT22;19277;51.778;7.912;2023-05-10T09:37:55;20.00;86.50
32600;DHT22;19277;51.778;7.912;2023-05-10T09:40:25;19.80;87.00
32600;DHT22;19277;51.778;7.912;2023-05-10T09:43:02;19.70;86.80
32600;DHT22;19277;51.778;7.912;2023-05-10T09:45:33;19.60;88.00
32600;DHT22;19277;51.778;7.912;2023-05-10T09:48:01;20.00;87.20
32600;DHT22;19277;51.778;7.912;2023-05-10T09:50:27;20.50;88.90
32600;DHT22;19277;51.778;7.912;2023-05-10T09:52:58;21.00;87.20
32600;DHT22;19277;51.778;7.912;2023-05-10T09:55:26;21.30;86.00
32600;DHT22;19277;51.778;7.912;2023-05-10T09:58:02;21.60;84.90
32600;DHT22;19277;51.778;7.912;2023-05-10T10:00:35;21.80;83.80
32600;DHT22;19277;51.778;7.912;2023-05-10T10:03:01;21.90;83.00
32600;DHT22;19277;51.778;7.912;2023-05-10T10:05:30;22.00;82.50
32600;DHT22;19277;51.778;7.912;2023-05-10T10:07:57;22.10;81.90
32600;DHT22;19277;51.778;7.912;2023-05-10T10:10:27;22.10;81.80
32600;DHT22;19277;51.778;7.912;2023-05-10T10:12:54;22.20;81.50
32600;DHT22;19277;51.778;7.912;2023-05-10T10:15:21;22.20;81.10
32600;DHT22;19277;51.778;7.912;2023-05-10T10:17:48;22.30;81.00
32600;DHT22;19277;51.778;7.912;2023-05-10T10:20:15;22.30;80.70
32600;DHT22;19277;51.778;7.912;2023-05-10T10:22:40;22.40;80.50
32600;DHT22;19277;51.778;7.912;2023-05-10T10:25:07;22.40;80.30
32600;DHT22;19277;51.778;7.912;2023-05-10T10:30:46;22.60;79.70
32600;DHT22;19277;51.778;7.912;2023-05-10T10:35:59;22.70;78.70
32600;DHT22;19277;51.778;7.912;2023-05-10T10:38:25;22.80;78.50
32600;DHT22;19277;51.778;7.912;2023-05-10T10:41:36;22.80;78.00
32600;DHT22;19277;51.778;7.912;2023-05-10T10:44:22;22.80;78.40
32600;DHT22;19277;51.778;7.912;2023-05-10T10:47:21;22.80;78.30
32600;DHT22;19277;51.778;7.912;2023-05-10T10:50:04;22.70;78.30
32600;DHT22;19277;51.778;7.912;2023-05-10T10:52:40;22.70;78.30
32600;DHT22;19277;51.778;7.912;2023-05-10T10:55:20;22.70;78.20
32600;DHT22;19277;51.778;7.912;2023-05-10T10:57:52;22.70;78.30
32600;DHT22;19277;51.778;7.912;2023-05-10T11:02:57;22.80;77.90
32600;DHT22;19277;51.778;7.912;2023-05-10T11:07:55;22.60;74.80
32600;DHT22;19277;51.778;7.912;2023-05-10T11:10:22;22.10;77.00
32600;DHT22;19277;51.778;7.912;2023-05-10T11:13:08;21.90;78.10
32600;DHT22;19277;51.778;7.912;2023-05-10T11:15:48;21.80;77.80
32600;DHT22;19277;51.778;7.912;2023-05-10T11:18:30;21.80;78.00
32600;DHT22;19277;51.778;7.912;2023-05-10T11:23:21;21.90;78.10
32600;DHT22;19277;51.778;7.912;2023-05-10T11:25:48;21.80;78.00
32600;DHT22;19277;51.778;7.912;2023-05-10T11:28:14;21.70;77.20
32600;DHT22;19277;51.778;7.912;2023-05-10T11:30:40;21.80;78.10
32600;DHT22;19277;51.778;7.912;2023-05-10T11:33:07;21.90;77.80
32600;DHT22;19277;51.778;7.912;2023-05-10T11:35:40;21.90;76.90
32600;DHT22;19277;51.778;7.912;2023-05-10T11:38:09;21.90;76.90
32600;DHT22;19277;51.778;7.912;2023-05-10T11:40:36;21.90;76.60
32600;DHT22;19277;51.778;7.912;2023-05-10T11:43:03;21.80;77.00
32600;DHT22;19277;51.778;7.912;2023-05-10T11:45:32;21.70;76.80
32600;DHT22;19277;51.778;7.912;2023-05-10T11:47:58;21.80;75.50
32600;DHT22;19277;51.778;7.912;2023-05-10T11:50:24;21.90;76.80
32600;DHT22;19277;51.778;7.912;2023-05-10T11:52:55;21.90;73.90
32600;DHT22;19277;51.778;7.912;2023-05-10T11:55:21;21.90;76.50
32600;DHT22;19277;51.778;7.912;2023-05-10T11:57:49;21.90;76.10
32600;DHT22;19277;51.778;7.912;2023-05-10T12:00:16;21.70;75.30
32600;DHT22;19277;51.778;7.912;2023-05-10T12:02:42;21.60;77.60
32600;DHT22;19277;51.778;7.912;2023-05-10T12:05:08;21.50;78.40
32600;DHT22;19277;51.778;7.912;2023-05-10T12:07:34;21.40;77.90
32600;DHT22;19277;51.778;7.912;2023-05-10T12:10:07;21.20;79.20
32600;DHT22;19277;51.778;7.912;2023-05-10T12:12:44;21.10;79.70
32600;DHT22;19277;51.778;7.912;2023-05-10T12:17:44;21.10;80.10
32600;DHT22;19277;51.778;7.912;2023-05-10T12:20:21;21.10;78.70
32600;DHT22;19277;51.778;7.912;2023-05-10T12:22:50;21.20;78.50
32600;DHT22;19277;51.778;7.912;2023-05-10T12:25:21;21.10;79.10
32600;DHT22;19277;51.778;7.912;2023-05-10T12:27:54;21.10;79.80
32600;DHT22;19277;51.778;7.912;2023-05-10T12:30:24;21.10;79.60
32600;DHT22;19277;51.778;7.912;2023-05-10T12:32:51;21.20;79.50
32600;DHT22;19277;51.778;7.912;2023-05-10T12:35:17;21.00;80.00
32600;DHT22;19277;51.778;7.912;2023-05-10T12:37:47;20.90;80.20
32600;DHT22;19277;51.778;7.912;2023-05-10T12:40:13;20.80;81.30
32600;DHT22;19277;51.778;7.912;2023-05-10T12:42:39;20.60;82.50
32600;DHT22;19277;51.778;7.912;2023-05-10T12:45:06;20.60;83.00
32600;DHT22;19277;51.778;7.912;2023-05-10T12:47:32;20.60;84.80
32600;DHT22;19277;51.778;7.912;2023-05-10T12:50:00;20.40;85.80
32600;DHT22;19277;51.778;7.912;2023-05-10T12:52:26;20.40;85.60
32600;DHT22;19277;51.778;7.912;2023-05-10T12:54:52;20.50;85.80
32600;DHT22;19277;51.778;7.912;2023-05-10T12:57:20;20.50;85.10
32600;DHT22;19277;51.778;7.912;2023-05-10T12:59:46;20.60;85.50
32600;DHT22;19277;51.778;7.912;2023-05-10T13:02:11;20.60;85.20
32600;DHT22;19277;51.778;7.912;2023-05-10T13:04:37;20.80;85.10
32600;DHT22;19277;51.778;7.912;2023-05-10T13:07:08;20.80;84.70
32600;DHT22;19277;51.778;7.912;2023-05-10T13:09:34;20.90;84.00
32600;DHT22;19277;51.778;7.912;2023-05-10T13:12:00;21.10;81.90
32600;DHT22;19277;51.778;7.912;2023-05-10T13:14:25;21.30;79.30
32600;DHT22;19277;51.778;7.912;2023-05-10T13:16:51;21.40;78.80
32600;DHT22;19277;51.778;7.912;2023-05-10T13:19:17;21.40;78.40
32600;DHT22;19277;51.778;7.912;2023-05-10T13:21:43;21.40;80.10
32600;DHT22;19277;51.778;7.912;2023-05-10T13:24:10;21.70;79.10
32600;DHT22;19277;51.778;7.912;2023-05-10T13:26:36;22.00;77.80
32600;DHT22;19277;51.778;7.912;2023-05-10T13:29:02;22.20;77.80
32600;DHT22;19277;51.778;7.912;2023-05-10T13:31:28;22.40;77.20
32600;DHT22;19277;51.778;7.912;2023-05-10T13:33:54;22.60;76.60
32600;DHT22;19277;51.778;7.912;2023-05-10T13:36:19;22.70;76.10
32600;DHT22;19277;51.778;7.912;2023-05-10T13:38:45;22.90;75.70
32600;DHT22;19277;51.778;7.912;2023-05-10T13:41:10;22.80;75.60
32600;DHT22;19277;51.778;7.912;2023-05-10T13:43:36;22.90;74.90
32600;DHT22;19277;51.778;7.912;2023-05-10T13:46:02;22.90;75.50
32600;DHT22;19277;51.778;7.912;2023-05-10T13:48:28;22.90;75.70
32600;DHT22;19277;51.778;7.912;2023-05-10T13:50:53;22.90;75.50
32600;DHT22;19277;51.778;7.912;2023-05-10T13:53:19;22.90;75.30
32600;DHT22;19277;51.778;7.912;2023-05-10T13:55:45;22.90;74.90
32600;DHT22;19277;51.778;7.912;2023-05-10T13:58:10;23.00;75.10
32600;DHT22;19277;51.778;7.912;2023-05-10T14:00:36;23.00;74.40
32600;DHT22;19277;51.778;7.912;2023-05-10T14:03:01;23.10;74.70
32600;DHT22;19277;51.778;7.912;2023-05-10T14:05:27;23.20;74.60
32600;DHT22;19277;51.778;7.912;2023-05-10T14:07:53;23.20;75.10
32600;DHT22;19277;51.778;7.912;2023-05-10T14:10:19;23.30;74.30
32600;DHT22;19277;51.778;7.912;2023-05-10T14:12:45;23.40;74.60
32600;DHT22;19277;51.778;7.912;2023-05-10T14:15:10;23.40;74.50
32600;DHT22;19277;51.778;7.912;2023-05-10T14:17:37;23.50;73.40
32600;DHT22;19277;51.778;7.912;2023-05-10T14:20:02;23.50;72.60
32600;DHT22;19277;51.778;7.912;2023-05-10T14:22:29;23.50;73.00
32600;DHT22;19277;51.778;7.912;2023-05-10T14:24:55;23.50;73.30
32600;DHT22;19277;51.778;7.912;2023-05-10T14:27:20;23.50;73.50
32600;DHT22;19277;51.778;7.912;2023-05-10T14:29:47;23.40;73.60
32600;DHT22;19277;51.778;7.912;2023-05-10T14:32:12;23.40;73.80
32600;DHT22;19277;51.778;7.912;2023-05-10T14:34:38;23.40;73.60
32600;DHT22;19277;51.778;7.912;2023-05-10T14:37:04;23.40;73.60
32600;DHT22;19277;51.778;7.912;2023-05-10T14:39:30;23.40;73.40
32600;DHT22;19277;51.778;7.912;2023-05-10T14:41:56;23.40;72.90
32600;DHT22;19277;51.778;7.912;2023-05-10T14:44:21;23.50;73.00
32600;DHT22;19277;51.778;7.912;2023-05-10T14:46:47;23.40;72.60
32600;DHT22;19277;51.778;7.912;2023-05-10T14:49:13;23.50;72.20
32600;DHT22;19277;51.778;7.912;2023-05-10T14:51:39;23.50;72.40
32600;DHT22;19277;51.778;7.912;2023-05-10T14:54:05;23.50;72.40
32600;DHT22;19277;51.778;7.912;2023-05-10T14:56:31;23.50;72.00
32600;DHT22;19277;51.778;7.912;2023-05-10T14:58:57;23.50;72.50
32600;DHT22;19277;51.778;7.912;2023-05-10T15:01:22;23.60;72.40
32600;DHT22;19277;51.778;7.912;2023-05-10T15:03:48;23.60;72.40
32600;DHT22;19277;51.778;7.912;2023-05-10T15:06:16;23.50;72.40
32600;DHT22;19277;51.778;7.912;2023-05-10T15:08:42;23.50;72.60
32600;DHT22;19277;51.778;7.912;2023-05-10T15:11:07;23.40;72.80
32600;DHT22;19277;51.778;7.912;2023-05-10T15:13:33;23.40;72.80
32600;DHT22;19277;51.778;7.912;2023-05-10T15:15:59;23.40;73.00
32600;DHT22;19277;51.778;7.912;2023-05-10T15:18:24;23.30;75.10
32600;DHT22;19277;51.778;7.912;2023-05-10T15:20:50;23.30;74.90
32600;DHT22;19277;51.778;7.912;2023-05-10T15:23:15;23.20;74.70
32600;DHT22;19277;51.778;7.912;2023-05-10T15:25:41;23.20;74.70
32600;DHT22;19277;51.778;7.912;2023-05-10T15:28:06;23.20;74.60
32600;DHT22;19277;51.778;7.912;2023-05-10T15:30:32;23.10;74.60
32600;DHT22;19277;51.778;7.912;2023-05-10T15:32:57;23.10;74.50
32600;DHT22;19277;51.778;7.912;2023-05-10T15:35:23;23.10;74.60
32600;DHT22;19277;51.778;7.912;2023-05-10T15:37:49;23.10;74.60
32600;DHT22;19277;51.778;7.912;2023-05-10T15:40:15;23.10;74.40
32600;DHT22;19277;51.778;7.912;2023-05-10T15:42:40;23.10;74.40
32600;DHT22;19277;51.778;7.912;2023-05-10T15:45:06;23.00;74.20
32600;DHT22;19277;51.778;7.912;2023-05-10T15:47:32;23.10;74.30
32600;DHT22;19277;51.778;7.912;2023-05-10T15:49:58;23.00;74.20
32600;DHT22;19277;51.778;7.912;2023-05-10T15:52:24;23.00;74.20
32600;DHT22;19277;51.778;7.912;2023-05-10T15:54:50;23.10;74.20
32600;DHT22;19277;51.778;7.912;2023-05-10T15:57:15;23.10;73.90
32600;DHT22;19277;51.778;7.912;2023-05-10T15:59:41;23.20;73.80
32600;DHT22;19277;51.778;7.912;2023-05-10T16:02:08;23.10;73.80